Time;durP1;ratioP1;P1;durP2;ratioP2;P2;SDS_P1;SDS_P2;PMS_P1;PMS_P2;Temp;Humidity;BMP_temperature;BMP_pressure;BME280_temperature;BME280_humidity;BME280_pressure;Samples;Min_cycle;Max_cycle;Signal;HPM_P1;HPM_P2
2022/09/06 00:02:14;;;;;;;;;;;;;;;13.61;53.34;101445.42;1672712;85;20554;-68
2022/09/06 00:04:40;;;;;;;;;;;;;;;13.60;53.42;101441.05;1673276;85;20482;-68
2022/09/06 00:07:05;;;;;;;;;;;;;;;13.57;53.54;101444.91;1673282;85;21069;-68
2022/09/06 00:09:31;;;;;;;;;;;;;;;13.59;53.68;101447.41;1672107;85;20791;-68
2022/09/06 00:11:57;;;;;;;;;;;;;;;13.58;53.76;101443.87;1672312;84;20233;-68
2022/09/06 00:14:23;;;;;;;;;;;;;;;13.57;53.85;101442.23;1673402;85;20258;-68
2022/09/06 00:16:49;;;;;;;;;;;;;;;13.56;53.95;101436.52;1682942;84;20228;-68
2022/09/06 00:19:15;;;;;;;;;;;;;;;13.56;54.01;101447.23;1667038;85;21104;-68
2022/09/06 00:21:40;;;;;;;;;;;;;;;13.56;54.14;101445.06;1663767;85;20266;-68
2022/09/06 00:24:07;;;;;;;;;;;;;;;13.55;54.23;101438.01;1673177;85;20206;-68
2022/09/06 00:26:32;;;;;;;;;;;;;;;13.55;54.32;101442.03;1672788;85;20187;-68
2022/09/06 00:28:58;;;;;;;;;;;;;;;13.54;54.39;101439.88;1671277;84;20273;-67
2022/09/06 00:31:25;;;;;;;;;;;;;;;13.54;54.47;101435.02;1672143;85;21115;-68
2022/09/06 00:33:51;;;;;;;;;;;;;;;13.55;54.59;101442.03;1670500;85;20191;-68
2022/09/06 00:36:17;;;;;;;;;;;;;;;13.55;54.67;101433.98;1673091;85;20828;-68
2022/09/06 00:38:43;;;;;;;;;;;;;;;13.53;54.75;101434.67;1673159;85;20254;-68
2022/09/06 00:41:10;;;;;;;;;;;;;;;13.51;54.83;101424.09;1673354;85;20142;-67
2022/09/06 00:43:36;;;;;;;;;;;;;;;13.51;54.92;101424.94;1675907;84;21830;-68
2022/09/06 00:46:02;;;;;;;;;;;;;;;13.50;54.98;101428.64;1679267;84;20829;-68
2022/09/06 00:48:27;;;;;;;;;;;;;;;13.49;55.02;101418.92;1680289;84;20205;-68
2022/09/06 00:50:56;;;;;;;;;;;;;;;13.49;55.10;101416.23;1680315;85;20205;-68
2022/09/06 00:53:22;;;;;;;;;;;;;;;13.49;55.17;101416.23;1680443;85;20206;-68
2022/09/06 00:55:48;;;;;;;;;;;;;;;13.49;55.23;101416.23;1680093;84;21090;-67
2022/09/06 00:58:15;;;;;;;;;;;;;;;13.46;55.29;101413.05;1680254;85;20204;-68
2022/09/06 01:00:41;;;;;;;;;;;;;;;13.44;55.36;101413.20;1677015;84;20191;-68
2022/09/06 01:03:06;;;;;;;;;;;;;;;13.41;55.44;101413.53;1679763;85;20182;-68
2022/09/06 01:05:54;;;;;;;;;;;;;;;13.39;55.54;101410.19;1653220;85;20865;-68
2022/09/06 01:08:24;;;;;;;;;;;;;;;13.36;55.60;101418.56;1664824;85;21310;-68
2022/09/06 01:10:56;;;;;;;;;;;;;;;13.32;55.68;101402.47;1679936;85;20186;-67
2022/09/06 01:13:38;;;;;;;;;;;;;;;13.28;55.76;101399.77;1668250;85;20223;-68
2022/09/06 01:16:12;;;;;;;;;;;;;;;13.26;55.83;101401.78;1679245;85;20641;-68
2022/09/06 01:19:01;;;;;;;;;;;;;;;13.22;55.91;101399.09;1680645;85;20194;-68
2022/09/06 01:21:46;;;;;;;;;;;;;;;13.18;55.99;101404.42;1680363;85;21132;-68
2022/09/06 01:24:48;;;;;;;;;;;;;;;13.14;56.08;101408.42;1680224;85;38564;-68
2022/09/06 01:27:20;;;;;;;;;;;;;;;13.08;56.13;101405.53;1624623;87;20200;-68
2022/09/06 01:30:10;;;;;;;;;;;;;;;13.01;56.23;101402.66;1669828;85;20211;-68
2022/09/06 01:32:54;;;;;;;;;;;;;;;12.96;56.29;101402.28;1679744;84;20527;-67
2022/09/06 01:35:37;;;;;;;;;;;;;;;12.94;56.41;101409.66;1680188;85;21262;-68
2022/09/06 01:38:03;;;;;;;;;;;;;;;12.91;56.51;101409.98;1679748;85;20237;-68
2022/09/06 01:40:29;;;;;;;;;;;;;;;12.89;56.61;101410.13;1680554;84;20797;-68
2022/09/06 01:42:55;;;;;;;;;;;;;;;12.87;56.66;101401.92;1680564;85;20322;-68
2022/09/06 01:45:34;;;;;;;;;;;;;;;12.85;56.76;101401.23;1642259;86;20177;-68
2022/09/06 01:48:06;;;;;;;;;;;;;;;12.85;56.81;101403.91;1612744;86;22127;-68
2022/09/06 01:50:42;;;;;;;;;;;;;;;12.85;56.93;101399.89;1641618;86;20592;-68
2022/09/06 01:53:46;;;;;;;;;;;;;;;12.84;57.01;101399.58;1624231;87;20206;-68
2022/09/06 01:56:21;;;;;;;;;;;;;;;12.84;57.08;101395.56;1582460;89;20516;-68
2022/09/06 01:58:51;;;;;;;;;;;;;;;12.84;57.17;101399.58;1588025;88;20182;-68
2022/09/06 02:01:37;;;;;;;;;;;;;;;12.85;57.23;101403.91;1615701;86;21138;-68
2022/09/06 02:04:19;;;;;;;;;;;;;;;12.85;57.32;101405.24;1623958;85;20164;-68
2022/09/06 02:06:47;;;;;;;;;;;;;;;12.85;57.40;101398.55;1638682;87;20194;-68
2022/09/06 02:09:15;;;;;;;;;;;;;;;12.85;57.48;101397.21;1641982;86;20167;-67
2022/09/06 02:11:44;;;;;;;;;;;;;;;12.85;57.53;101399.89;1642656;87;20259;-67
2022/09/06 02:14:13;;;;;;;;;;;;;;;12.84;57.59;101404.40;1641669;86;21079;-67
2022/09/06 02:16:39;;;;;;;;;;;;;;;12.82;57.67;101397.05;1642495;86;20367;-67
2022/09/06 02:19:20;;;;;;;;;;;;;;;12.81;57.73;101395.84;1642926;87;20183;-68
2022/09/06 02:21:46;;;;;;;;;;;;;;;12.79;57.79;101392.51;1631862;87;20251;-67
2022/09/06 02:24:16;;;;;;;;;;;;;;;12.75;57.89;101388.47;1642283;86;20183;-67
2022/09/06 02:26:42;;;;;;;;;;;;;;;12.72;57.97;101388.30;1641247;87;21301;-67
2022/09/06 02:29:08;;;;;;;;;;;;;;;12.68;58.02;101380.73;1641176;87;20167;-68
2022/09/06 02:31:38;;;;;;;;;;;;;;;12.63;58.08;101375.04;1642870;86;20196;-67
2022/09/06 02:34:04;;;;;;;;;;;;;;;12.57;58.15;101375.65;1625652;86;20168;-68
2022/09/06 02:36:30;;;;;;;;;;;;;;;12.50;58.22;101369.61;1641302;86;20557;-67
2022/09/06 02:38:57;;;;;;;;;;;;;;;12.44;58.33;101367.58;1642715;86;21107;-67
2022/09/06 02:41:23;;;;;;;;;;;;;;;12.40;58.43;101370.71;1608376;87;20183;-67
2022/09/06 02:43:49;;;;;;;;;;;;;;;12.33;58.51;101367.83;1640672;85;20815;-68
2022/09/06 02:46:15;;;;;;;;;;;;;;;12.29;58.60;101373.65;1680812;84;20220;-68
2022/09/06 02:48:40;;;;;;;;;;;;;;;12.23;58.69;101376.46;1669090;84;20208;-67
2022/09/06 02:51:07;;;;;;;;;;;;;;;12.18;58.78;101374.74;1671292;85;21120;-68
2022/09/06 02:53:33;;;;;;;;;;;;;;;12.11;58.89;101379.03;1672471;85;20183;-68
2022/09/06 02:55:59;;;;;;;;;;;;;;;12.06;59.00;101373.33;1680403;85;20241;-68
2022/09/06 02:58:25;;;;;;;;;;;;;;;12.00;59.08;101364.57;1681146;85;20187;-68
2022/09/06 03:00:51;;;;;;;;;;;;;;;11.97;59.20;101370.23;1672842;85;20782;-68
2022/09/06 03:03:18;;;;;;;;;;;;;;;11.94;59.26;101375.41;1680532;85;21791;-68
2022/09/06 03:05:50;;;;;;;;;;;;;;;11.89;59.37;101377.69;1680943;84;20302;-68
2022/09/06 03:08:16;;;;;;;;;;;;;;;11.86;59.47;101377.16;1681075;84;20533;-68
2022/09/06 03:10:51;;;;;;;;;;;;;;;11.83;59.57;101389.50;1681088;85;20495;-68
2022/09/06 03:13:17;;;;;;;;;;;;;;;11.80;59.66;101388.47;1680150;85;20202;-67
2022/09/06 03:15:43;;;;;;;;;;;;;;;11.77;59.73;101383.44;1680253;85;21905;-67
2022/09/06 03:18:09;;;;;;;;;;;;;;;11.75;59.81;101388.11;1679899;84;20530;-67
2022/09/06 03:20:35;;;;;;;;;;;;;;;11.71;59.91;101386.73;1680358;84;20237;-67
2022/09/06 03:23:01;;;;;;;;;;;;;;;11.68;60.00;101374.98;1679653;85;20190;-67
2022/09/06 03:25:26;;;;;;;;;;;;;;;11.64;60.09;101369.59;1680352;84;20194;-67
2022/09/06 03:27:54;;;;;;;;;;;;;;;11.59;60.20;101369.20;1680470;84;21079;-67
2022/09/06 03:30:20;;;;;;;;;;;;;;;11.53;60.29;101366.66;1679835;85;20205;-67
2022/09/06 03:32:46;;;;;;;;;;;;;;;11.48;60.36;101373.78;1681267;85;20245;-67
2022/09/06 03:35:11;;;;;;;;;;;;;;;11.44;60.42;101374.23;1681137;85;20730;-67
2022/09/06 03:37:37;;;;;;;;;;;;;;;11.40;60.55;101373.69;1681433;85;20365;-67
2022/09/06 03:40:04;;;;;;;;;;;;;;;11.36;60.63;101374.17;1681260;85;21115;-68
2022/09/06 03:42:29;;;;;;;;;;;;;;;11.30;60.73;101378.27;1680819;85;20263;-67
2022/09/06 03:44:55;;;;;;;;;;;;;;;11.24;60.84;101372.20;1678245;84;20222;-67
2022/09/06 03:47:21;;;;;;;;;;;;;;;11.19;60.90;101375.80;1675519;85;20186;-67
2022/09/06 03:49:47;;;;;;;;;;;;;;;11.13;61.02;101372.41;1675792;85;20798;-67
2022/09/06 03:52:13;;;;;;;;;;;;;;;11.09;61.11;101373.69;1674566;84;21795;-67
2022/09/06 03:54:39;;;;;;;;;;;;;;;11.04;61.20;101369.30;1675382;84;20233;-67
2022/09/06 03:57:05;;;;;;;;;;;;;;;11.00;61.29;101366.58;1675823;85;20526;-67
2022/09/06 03:59:31;;;;;;;;;;;;;;;10.93;61.38;101368.17;1675735;85;20503;-67
2022/09/06 04:01:57;;;;;;;;;;;;;;;10.87;61.52;101364.77;1675290;85;20206;-67
2022/09/06 04:04:23;;;;;;;;;;;;;;;10.81;61.62;101365.33;1675677;85;21080;-67
2022/09/06 04:06:49;;;;;;;;;;;;;;;10.73;61.73;101362.59;1675737;85;20229;-67
2022/09/06 04:09:15;;;;;;;;;;;;;;;10.69;61.87;101373.20;1666908;85;20242;-67
2022/09/06 04:11:41;;;;;;;;;;;;;;;10.64;61.99;101363.45;1674811;84;20535;-67
2022/09/06 04:14:07;;;;;;;;;;;;;;;10.60;62.13;101363.39;1662849;85;20592;-68
2022/09/06 04:16:33;;;;;;;;;;;;;;;10.54;62.23;101356.83;1675877;85;21201;-67
2022/09/06 04:19:00;;;;;;;;;;;;;;;10.51;62.36;101357.12;1675243;85;20214;-68
2022/09/06 04:21:26;;;;;;;;;;;;;;;10.46;62.47;101356.70;1674849;85;20211;-67
2022/09/06 04:23:52;;;;;;;;;;;;;;;10.44;62.56;101358.20;1675684;85;20219;-68
2022/09/06 04:26:18;;;;;;;;;;;;;;;10.43;62.66;101357.00;1675555;85;20791;-68
2022/09/06 04:28:44;;;;;;;;;;;;;;;10.42;62.76;101362.82;1675699;85;21179;-68
2022/09/06 04:31:09;;;;;;;;;;;;;;;10.41;62.85;101362.47;1674951;85;20203;-67
2022/09/06 04:33:37;;;;;;;;;;;;;;;10.41;62.94;101370.98;1675847;84;20233;-69
2022/09/06 04:36:04;;;;;;;;;;;;;;;10.41;63.03;101365.13;1675641;85;20219;-68
2022/09/06 04:38:35;;;;;;;;;;;;;;;10.43;63.11;101364.52;1675689;85;20180;-67
2022/09/06 04:41:01;;;;;;;;;;;;;;;10.44;63.17;101365.36;1671504;85;21313;-68
2022/09/06 04:43:27;;;;;;;;;;;;;;;10.46;63.27;101370.89;1674860;85;21000;-69
2022/09/06 04:45:53;;;;;;;;;;;;;;;10.55;63.35;101379.01;1687615;83;20271;-67
2022/09/06 04:48:19;;;;;;;;;;;;;;;11.04;63.69;101375.98;1680285;84;20182;-68
2022/09/06 04:50:45;;;;;;;;;;;;;;;11.90;63.67;101382.05;1680481;84;20266;-67
2022/09/06 04:53:10;;;;;;;;;;;;;;;12.68;63.45;101375.38;1679458;85;21095;-68
2022/09/06 04:55:36;;;;;;;;;;;;;;;13.35;63.14;101379.86;1680403;84;20877;-67
2022/09/06 04:58:02;;;;;;;;;;;;;;;13.91;62.68;101377.75;1680905;85;20754;-68
2022/09/06 05:00:30;;;;;;;;;;;;;;;14.35;62.42;101371.05;1680909;85;20183;-68
2022/09/06 05:02:56;;;;;;;;;;;;;;;14.85;62.10;101368.03;1681370;85;20183;-68
2022/09/06 05:05:22;;;;;;;;;;;;;;;15.27;61.66;101371.69;1680260;85;21064;-67
2022/09/06 05:07:52;;;;;;;;;;;;;;;15.45;61.15;101364.19;1680622;85;20214;-68
2022/09/06 05:10:17;;;;;;;;;;;;;;;15.44;60.57;101357.67;1661861;85;20179;-68
2022/09/06 05:12:48;;;;;;;;;;;;;;;15.34;60.61;101361.91;1681330;85;20962;-68
2022/09/06 05:15:15;;;;;;;;;;;;;;;15.86;60.30;101352.69;1680653;85;20222;-68
2022/09/06 05:17:41;;;;;;;;;;;;;;;16.47;59.82;101354.77;1681320;84;21120;-68
2022/09/06 05:20:09;;;;;;;;;;;;;;;17.03;59.32;101353.81;1681127;85;20225;-68
2022/09/06 05:22:35;;;;;;;;;;;;;;;17.21;58.51;101355.56;1681200;85;20190;-68
2022/09/06 05:25:00;;;;;;;;;;;;;;;17.13;57.70;101349.80;1680597;85;20711;-68
2022/09/06 05:27:26;;;;;;;;;;;;;;;17.14;56.92;101355.49;1681178;84;20222;-68
2022/09/06 05:29:52;;;;;;;;;;;;;;;16.50;56.87;101358.46;1681274;84;21177;-68
2022/09/06 05:32:18;;;;;;;;;;;;;;;15.87;57.21;101352.15;1681120;85;20213;-68
2022/09/06 05:34:43;;;;;;;;;;;;;;;15.54;57.48;101349.39;1680939;84;20241;-68
2022/09/06 05:37:09;;;;;;;;;;;;;;;15.24;57.55;101348.36;1681347;85;20257;-68
2022/09/06 05:39:35;;;;;;;;;;;;;;;14.91;57.62;101349.06;1681095;85;20202;-68
2022/09/06 05:42:05;;;;;;;;;;;;;;;14.85;57.69;101351.92;1681326;85;21852;-68
2022/09/06 05:44:28;;;;;;;;;;;;;;;14.87;57.71;101362.50;1680043;85;20230;-68
2022/09/06 05:46:54;;;;;;;;;;;;;;;14.95;57.73;101354.42;1680516;84;20241;-68
2022/09/06 05:49:20;;;;;;;;;;;;;;;15.19;57.74;101356.98;1681151;84;20293;-68
2022/09/06 05:51:51;;;;;;;;;;;;;;;15.33;57.64;101350.84;1684464;84;20194;-68
2022/09/06 05:54:17;;;;;;;;;;;;;;;15.12;57.52;101361.38;1680779;84;21203;-68
2022/09/06 05:56:43;;;;;;;;;;;;;;;14.91;57.53;101374.58;1680540;85;20187;-68
2022/09/06 05:59:09;;;;;;;;;;;;;;;14.67;57.58;101366.61;1681100;85;20201;-68
2022/09/06 06:01:35;;;;;;;;;;;;;;;14.41;57.50;101366.84;1678029;85;20511;-68
2022/09/06 06:04:02;;;;;;;;;;;;;;;14.18;57.58;101368.00;1680765;84;20265;-68
2022/09/06 06:06:29;;;;;;;;;;;;;;;14.07;57.66;101365.69;1682713;83;20533;-68
2022/09/06 06:08:55;;;;;;;;;;;;;;;13.95;57.74;101363.84;1681056;84;20240;-68
2022/09/06 06:11:21;;;;;;;;;;;;;;;13.81;57.76;101371.72;1681221;85;20218;-68
2022/09/06 06:13:47;;;;;;;;;;;;;;;13.71;57.84;101379.09;1680676;85;20194;-68
2022/09/06 06:16:15;;;;;;;;;;;;;;;13.70;57.87;101369.36;1681095;84;20194;-68
2022/09/06 06:18:41;;;;;;;;;;;;;;;13.69;57.91;101369.86;1681818;84;21075;-69
2022/09/06 06:21:14;;;;;;;;;;;;;;;13.74;58.03;101370.70;1681356;85;20645;-68
2022/09/06 06:23:41;;;;;;;;;;;;;;;13.74;58.04;101363.51;1680652;84;20471;-68
2022/09/06 06:26:07;;;;;;;;;;;;;;;13.83;58.10;101358.47;1680509;85;20511;-68
2022/09/06 06:28:34;;;;;;;;;;;;;;;14.09;58.17;101346.23;1684561;84;20249;-69
2022/09/06 06:31:01;;;;;;;;;;;;;;;14.37;58.16;101350.23;1669106;84;21155;-69
2022/09/06 06:33:27;;;;;;;;;;;;;;;14.75;58.09;101342.39;1679179;84;20186;-69
2022/09/06 06:36:15;;;;;;;;;;;;;;;14.78;57.97;101346.07;1681559;84;20207;-69
2022/09/06 06:38:42;;;;;;;;;;;;;;;14.92;57.94;101336.78;1681384;85;20191;-68
2022/09/06 06:41:09;;;;;;;;;;;;;;;15.03;57.82;101336.05;1680903;85;20206;-69
2022/09/06 06:43:36;;;;;;;;;;;;;;;15.35;57.74;101331.34;1681316;85;21135;-68
2022/09/06 06:46:16;;;;;;;;;;;;;;;15.63;57.65;101326.80;1681336;83;20483;-69
2022/09/06 06:48:43;;;;;;;;;;;;;;;15.90;57.50;101322.22;1679962;84;20230;-69
2022/09/06 06:51:13;;;;;;;;;;;;;;;16.10;57.25;101327.41;1681218;85;20184;-69
2022/09/06 06:53:39;;;;;;;;;;;;;;;16.38;57.07;101328.45;1681265;84;20203;-69
2022/09/06 06:56:25;;;;;;;;;;;;;;;16.57;56.83;101328.96;1681258;85;21071;-69
2022/09/06 06:58:52;;;;;;;;;;;;;;;16.80;56.68;101331.02;1680668;85;20191;-69
2022/09/06 07:01:23;;;;;;;;;;;;;;;17.02;56.41;101334.62;1681335;84;20223;-69
2022/09/06 07:03:46;;;;;;;;;;;;;;;17.15;56.13;101332.91;1680250;85;20183;-69
2022/09/06 07:06:12;;;;;;;;;;;;;;;17.16;55.76;101335.09;1680573;85;20865;-69
2022/09/06 07:08:38;;;;;;;;;;;;;;;17.23;55.51;101331.97;1674609;85;20433;-69
2022/09/06 07:11:05;;;;;;;;;;;;;;;17.25;55.29;101324.00;1670914;84;20186;-69
2022/09/06 07:13:32;;;;;;;;;;;;;;;17.41;55.09;101325.13;1681397;85;20487;-69
2022/09/06 07:16:11;;;;;;;;;;;;;;;17.41;54.67;101326.47;1681429;85;20199;-69
2022/09/06 07:18:40;;;;;;;;;;;;;;;17.41;54.43;101327.82;1681197;85;20216;-69
2022/09/06 07:21:05;;;;;;;;;;;;;;;17.34;53.99;101322.88;1679056;85;21750;-69
2022/09/06 07:23:31;;;;;;;;;;;;;;;17.44;53.74;101324.73;1678678;84;20245;-69
2022/09/06 07:25:56;;;;;;;;;;;;;;;17.64;53.60;101334.39;1679510;84;20456;-69
2022/09/06 07:28:22;;;;;;;;;;;;;;;17.73;53.31;101332.41;1680424;84;20193;-69
2022/09/06 07:30:50;;;;;;;;;;;;;;;17.80;53.04;101337.36;1681293;84;20189;-69
2022/09/06 07:33:16;;;;;;;;;;;;;;;17.84;52.81;101335.40;1650861;85;21024;-69
2022/09/06 07:35:42;;;;;;;;;;;;;;;17.98;52.68;101334.99;1679779;84;20213;-69
2022/09/06 07:38:07;;;;;;;;;;;;;;;18.15;52.52;101332.35;1683394;84;20195;-69
2022/09/06 07:40:33;;;;;;;;;;;;;;;18.24;52.17;101335.21;1680938;85;20573;-69
2022/09/06 07:42:59;;;;;;;;;;;;;;;18.25;51.91;101335.53;1681363;84;20174;-69
2022/09/06 07:45:25;;;;;;;;;;;;;;;18.36;51.72;101337.70;1678200;83;21682;-69
2022/09/06 07:47:54;;;;;;;;;;;;;;;18.45;51.38;101337.84;1673465;84;20205;-69
2022/09/06 07:50:21;;;;;;;;;;;;;;;18.52;50.98;101327.62;1675137;85;20195;-69
2022/09/06 07:52:47;;;;;;;;;;;;;;;18.40;50.65;101332.19;1671778;85;20191;-69
2022/09/06 07:55:12;;;;;;;;;;;;;;;18.24;50.50;101332.51;1672528;85;20815;-69
2022/09/06 07:57:38;;;;;;;;;;;;;;;18.13;50.47;101327.65;1672696;85;21032;-69
2022/09/06 08:00:04;;;;;;;;;;;;;;;18.11;50.41;101333.77;1674703;84;20309;-69
2022/09/06 08:02:30;;;;;;;;;;;;;;;18.13;50.43;101337.61;1674837;85;20466;-69
2022/09/06 08:04:56;;;;;;;;;;;;;;;18.14;50.39;101329.84;1673853;84;20779;-69
2022/09/06 08:07:23;;;;;;;;;;;;;;;18.18;50.38;101331.95;1674306;84;20202;-69
2022/09/06 08:09:50;;;;;;;;;;;;;;;18.20;50.31;101331.23;1666115;85;21076;-69
2022/09/06 08:12:16;;;;;;;;;;;;;;;18.18;50.14;101325.20;1680671;84;20532;-69
2022/09/06 08:14:41;;;;;;;;;;;;;;;18.19;50.11;101326.85;1673738;85;20234;-69
2022/09/06 08:17:07;;;;;;;;;;;;;;;18.13;49.97;101326.30;1678514;84;20190;-69
2022/09/06 08:19:33;;;;;;;;;;;;;;;18.24;49.99;101331.16;1674299;84;20229;-69
2022/09/06 08:21:59;;;;;;;;;;;;;;;18.34;49.97;101332.98;1674141;85;21779;-69
2022/09/06 08:24:25;;;;;;;;;;;;;;;18.41;49.96;101332.52;1668607;85;20265;-69
2022/09/06 08:26:51;;;;;;;;;;;;;;;18.44;49.85;101329.41;1673521;85;20198;-69
2022/09/06 08:29:18;;;;;;;;;;;;;;;18.48;49.78;101332.05;1688368;84;20190;-69
2022/09/06 08:31:44;;;;;;;;;;;;;;;18.51;49.63;101324.08;1683183;84;20219;-69
2022/09/06 08:34:13;;;;;;;;;;;;;;;18.63;49.62;101327.06;1673032;85;21875;-69
2022/09/06 08:36:40;;;;;;;;;;;;;;;18.77;49.61;101324.75;1692695;84;20174;-69
2022/09/06 08:39:07;;;;;;;;;;;;;;;18.79;49.56;101325.37;1680088;84;20215;-69
2022/09/06 08:41:53;;;;;;;;;;;;;;;18.72;49.41;101317.75;1673875;84;20204;-69
2022/09/06 08:44:26;;;;;;;;;;;;;;;18.70;49.42;101325.23;1676243;84;20186;-70
2022/09/06 08:46:59;;;;;;;;;;;;;;;18.68;49.44;101324.06;1690796;84;21830;-70
2022/09/06 08:49:25;;;;;;;;;;;;;;;18.80;49.51;101318.94;1679531;84;20215;-69
2022/09/06 08:52:21;;;;;;;;;;;;;;;18.85;49.48;101317.83;1680969;84;20202;-69
2022/09/06 08:54:50;;;;;;;;;;;;;;;18.85;49.47;101309.72;1684811;84;20165;-69
2022/09/06 08:57:32;;;;;;;;;;;;;;;18.85;49.52;101310.56;1678298;85;20238;-69
2022/09/06 09:00:03;;;;;;;;;;;;;;;18.83;49.52;101311.77;1676480;85;21052;-69
2022/09/06 09:02:32;;;;;;;;;;;;;;;18.80;49.54;101312.18;1680464;84;20503;-69
2022/09/06 09:04:59;;;;;;;;;;;;;;;18.74;49.58;101311.64;1678181;85;20181;-69
2022/09/06 09:07:35;;;;;;;;;;;;;;;18.78;49.67;101314.27;1680457;85;20218;-69
2022/09/06 09:10:03;;;;;;;;;;;;;;;18.82;49.75;101311.48;1675460;84;20524;-69
2022/09/06 09:12:29;;;;;;;;;;;;;;;18.88;49.74;101307.45;1652833;85;21130;-69
2022/09/06 09:14:59;;;;;;;;;;;;;;;18.89;49.71;101310.98;1679587;85;20634;-69
2022/09/06 09:17:26;;;;;;;;;;;;;;;18.94;49.71;101303.09;1666060;85;20240;-69
2022/09/06 09:19:52;;;;;;;;;;;;;;;18.98;49.70;101304.36;1679087;85;20193;-69
2022/09/06 09:22:18;;;;;;;;;;;;;;;19.08;49.78;101297.20;1653019;85;20319;-70
2022/09/06 09:24:46;;;;;;;;;;;;;;;19.14;49.73;101289.65;1677620;85;21807;-69
2022/09/06 09:27:12;;;;;;;;;;;;;;;19.19;49.66;101279.88;1654418;85;20161;-69
2022/09/06 09:29:56;;;;;;;;;;;;;;;19.26;49.55;101268.55;1680554;85;20169;-69
2022/09/06 09:32:32;;;;;;;;;;;;;;;19.34;49.33;101273.77;1681315;84;20165;-69
2022/09/06 09:35:25;;;;;;;;;;;;;;;19.38;48.93;101269.62;1681486;85;20158;-69
2022/09/06 09:38:00;;;;;;;;;;;;;;;19.46;48.67;101269.14;1680774;85;21101;-69
2022/09/06 09:40:29;;;;;;;;;;;;;;;19.52;48.29;101266.95;1681177;84;20162;-69
2022/09/06 09:42:56;;;;;;;;;;;;;;;19.51;47.86;101258.52;1681328;85;20476;-70
2022/09/06 09:45:29;;;;;;;;;;;;;;;19.66;47.74;101259.16;1654299;85;20161;-70
2022/09/06 09:47:55;;;;;;;;;;;;;;;19.79;47.40;101258.62;1677564;85;20204;-71
2022/09/06 09:50:26;;;;;;;;;;;;;;;19.80;47.00;101256.76;1678477;85;22059;-71
2022/09/06 09:52:52;;;;;;;;;;;;;;;19.79;46.67;101253.73;1678510;85;20462;-71
2022/09/06 09:55:22;;;;;;;;;;;;;;;19.82;46.37;101256.02;1678255;85;20188;-71
2022/09/06 09:57:49;;;;;;;;;;;;;;;19.84;45.90;101252.05;1677740;85;20183;-72
2022/09/06 10:00:19;;;;;;;;;;;;;;;19.88;45.56;101250.59;1677518;85;20193;-72
2022/09/06 10:02:45;;;;;;;;;;;;;;;19.96;45.39;101253.61;1671728;85;21163;-71
2022/09/06 10:05:14;;;;;;;;;;;;;;;20.01;45.11;101247.05;1678489;85;20330;-71
2022/09/06 10:07:46;;;;;;;;;;;;;;;20.09;44.83;101241.94;1678417;85;20151;-71
2022/09/06 10:10:13;;;;;;;;;;;;;;;20.20;44.65;101243.97;1676406;85;20230;-71
2022/09/06 10:12:40;;;;;;;;;;;;;;;20.25;44.21;101240.95;1676094;84;20191;-71
2022/09/06 10:15:07;;;;;;;;;;;;;;;20.28;43.88;101234.30;1675989;84;21178;-71
2022/09/06 10:17:37;;;;;;;;;;;;;;;20.43;43.74;101228.95;1656867;85;20207;-71
2022/09/06 10:20:11;;;;;;;;;;;;;;;20.57;43.48;101224.83;1675949;85;20194;-70
2022/09/06 10:22:52;;;;;;;;;;;;;;;20.72;43.17;101219.97;1658372;85;20175;-70
2022/09/06 10:25:37;;;;;;;;;;;;;;;20.94;43.01;101210.44;1594648;88;20210;-74
2022/09/06 10:28:15;;;;;;;;;;;;;;;21.07;42.44;101212.25;1675937;85;21334;-77
2022/09/06 10:31:02;;;;;;;;;;;;;;;21.28;42.13;101210.57;1675323;85;20188;-70
2022/09/06 10:33:43;;;;;;;;;;;;;;;21.40;41.59;101202.84;1675931;84;20531;-71
2022/09/06 10:36:09;;;;;;;;;;;;;;;21.48;41.21;101200.90;1675453;85;20306;-73
2022/09/06 10:38:53;;;;;;;;;;;;;;;21.58;40.88;101208.02;1676233;84;20258;-70
2022/09/06 10:41:57;;;;;;;;;;;;;;;21.50;40.17;101211.03;1658261;84;21092;-70
2022/09/06 10:44:27;;;;;;;;;;;;;;;21.39;39.71;101197.09;1675872;85;20487;-70
2022/09/06 10:46:56;;;;;;;;;;;;;;;21.31;39.54;101204.18;1675414;84;20468;-70
2022/09/06 10:49:23;;;;;;;;;;;;;;;21.26;39.36;101216.72;1675711;85;20513;-71
2022/09/06 10:51:55;;;;;;;;;;;;;;;21.22;39.22;101209.55;1675871;85;20254;-73
2022/09/06 10:54:22;;;;;;;;;;;;;;;21.19;39.12;101215.42;1675807;84;21071;-70
2022/09/06 10:57:02;;;;;;;;;;;;;;;21.11;38.79;101203.47;1675887;84;20187;-70
2022/09/06 10:59:31;;;;;;;;;;;;;;;21.05;38.70;101212.98;1675976;85;20184;-71
2022/09/06 11:02:18;;;;;;;;;;;;;;;21.05;38.62;101201.61;1676035;85;20183;-69
2022/09/06 11:04:45;;;;;;;;;;;;;;;21.05;38.32;101209.74;1620104;88;20196;-68
2022/09/06 11:07:28;;;;;;;;;;;;;;;21.10;38.13;101211.81;1659315;85;21132;-68
2022/09/06 11:10:03;;;;;;;;;;;;;;;21.23;38.14;101216.65;1675814;85;20203;-68
2022/09/06 11:12:49;;;;;;;;;;;;;;;21.29;38.06;101214.41;1675541;85;20231;-70
2022/09/06 11:15:15;;;;;;;;;;;;;;;21.28;37.92;101217.35;1656093;84;20186;-68
2022/09/06 11:17:48;;;;;;;;;;;;;;;21.30;37.98;101218.79;1675780;85;20222;-68
2022/09/06 11:20:29;;;;;;;;;;;;;;;21.43;38.08;101215.68;1675753;84;21174;-69
2022/09/06 11:23:11;;;;;;;;;;;;;;;21.52;38.16;101218.41;1675703;85;20186;-68
2022/09/06 11:25:49;;;;;;;;;;;;;;;21.59;38.26;101212.40;1674584;85;20196;-68
2022/09/06 11:28:24;;;;;;;;;;;;;;;21.66;38.25;101208.58;1675584;84;20191;-68
2022/09/06 11:30:50;;;;;;;;;;;;;;;21.70;38.26;101210.32;1647249;85;20226;-68
2022/09/06 11:33:28;;;;;;;;;;;;;;;21.74;38.18;101205.56;1676149;85;21068;-69
2022/09/06 11:35:58;;;;;;;;;;;;;;;21.69;37.99;101196.44;1675962;85;20200;-68
2022/09/06 11:38:24;;;;;;;;;;;;;;;21.61;37.83;101193.99;1669340;85;20262;-68
2022/09/06 11:40:59;;;;;;;;;;;;;;;21.68;37.86;101185.26;1653174;85;20208;-68
2022/09/06 11:43:49;;;;;;;;;;;;;;;21.74;37.81;101192.53;1675898;85;20468;-71
2022/09/06 11:46:34;;;;;;;;;;;;;;;21.70;37.67;101179.93;1675797;83;21245;-69
2022/09/06 11:49:03;;;;;;;;;;;;;;;21.76;37.48;101179.55;1613293;84;20186;-69
2022/09/06 11:51:38;;;;;;;;;;;;;;;21.68;37.22;101168.97;1675370;85;20223;-68
2022/09/06 11:54:23;;;;;;;;;;;;;;;21.62;37.21;101176.66;1674867;84;20187;-69
2022/09/06 11:56:53;;;;;;;;;;;;;;;21.64;37.32;101180.00;1672327;85;20195;-70
2022/09/06 11:59:25;;;;;;;;;;;;;;;21.79;37.39;101171.78;1674496;85;21120;-70
2022/09/06 12:02:01;;;;;;;;;;;;;;;21.88;37.30;101170.98;1675249;84;20180;-70
2022/09/06 12:05:00;;;;;;;;;;;;;;;21.84;37.24;101173.84;1669746;85;20187;-69
2022/09/06 12:07:26;;;;;;;;;;;;;;;21.83;37.27;101177.59;1673661;84;20464;-69
2022/09/06 12:09:52;;;;;;;;;;;;;;;21.74;37.19;101166.73;1663193;84;20183;-69
2022/09/06 12:12:37;;;;;;;;;;;;;;;21.70;37.19;101168.23;1667242;85;21209;-69
2022/09/06 12:15:30;;;;;;;;;;;;;;;21.71;37.15;101179.41;1670809;85;20512;-69
2022/09/06 12:17:56;;;;;;;;;;;;;;;21.70;37.06;101165.52;1642490;85;20184;-70
2022/09/06 12:20:43;;;;;;;;;;;;;;;21.70;36.79;101159.56;1675846;84;20483;-69
2022/09/06 12:23:09;;;;;;;;;;;;;;;21.60;36.66;101166.56;1661339;85;20218;-69
2022/09/06 12:25:39;;;;;;;;;;;;;;;21.60;36.74;101161.13;1656337;85;21224;-70
2022/09/06 12:28:08;;;;;;;;;;;;;;;21.63;36.75;101155.25;1673071;84;21226;-70
2022/09/06 12:30:36;;;;;;;;;;;;;;;21.57;36.69;101156.16;1670016;84;20210;-69
2022/09/06 12:33:32;;;;;;;;;;;;;;;21.49;36.66;101159.14;1679857;84;20251;-69
2022/09/06 12:36:16;;;;;;;;;;;;;;;21.43;36.66;101154.61;1672640;84;20158;-69
2022/09/06 12:38:53;;;;;;;;;;;;;;;21.43;36.72;101146.47;1671063;85;21172;-69
2022/09/06 12:41:18;;;;;;;;;;;;;;;21.47;36.77;101150.38;1662294;84;20223;-69
2022/09/06 12:43:44;;;;;;;;;;;;;;;21.43;36.83;101141.33;1675123;85;20245;-69
2022/09/06 12:46:10;;;;;;;;;;;;;;;21.51;36.88;101143.45;1675735;85;20232;-69
2022/09/06 12:48:40;;;;;;;;;;;;;;;21.53;36.96;101147.62;1669753;85;20783;-69
2022/09/06 12:51:15;;;;;;;;;;;;;;;21.49;36.95;101137.43;1681019;84;21260;-69